Time;durP1;ratioP1;P1;durP2;ratioP2;P2;SDS_P1;SDS_P2;PMS_P1;PMS_P2;Temp;Humidity;BMP_temperature;BMP_pressure;BME280_temperature;BME280_humidity;BME280_pressure;Samples;Min_cycle;Max_cycle;Signal;HPM_P1;HPM_P2
2022/06/16 00:01:33;;;;;;;1.80;1.70;;;26.20;61.20;;;;;;4975995;28;20503;-83
2022/06/16 00:04:00;;;;;;;1.87;1.77;;;26.30;61.30;;;;;;4976195;28;20449;-84
2022/06/16 00:06:28;;;;;;;1.60;1.50;;;26.30;61.30;;;;;;4975792;28;20445;-84
2022/06/16 00:08:55;;;;;;;1.67;1.57;;;26.30;61.30;;;;;;4976061;28;20792;-83
2022/06/16 00:11:22;;;;;;;2.13;2.00;;;26.30;61.40;;;;;;4976045;28;20504;-83
2022/06/16 00:13:51;;;;;;;1.90;1.80;;;26.20;61.20;;;;;;4975885;28;20492;-83
2022/06/16 00:16:18;;;;;;;2.00;1.90;;;26.30;61.30;;;;;;4975483;28;20532;-83
2022/06/16 00:18:46;;;;;;;2.23;2.10;;;26.20;61.20;;;;;;4975916;28;20441;-83
2022/06/16 00:21:13;;;;;;;1.70;1.60;;;26.30;61.20;;;;;;4975789;28;20448;-83
2022/06/16 00:23:42;;;;;;;1.70;1.60;;;26.20;61.10;;;;;;4975775;28;20441;-84
2022/06/16 00:26:12;;;;;;;1.53;1.43;;;26.30;61.20;;;;;;4975421;28;20442;-84
2022/06/16 00:28:40;;;;;;;1.53;1.43;;;26.30;61.20;;;;;;4975525;28;20445;-83
2022/06/16 00:31:09;;;;;;;1.80;1.63;;;26.30;61.20;;;;;;4975340;28;20461;-84
2022/06/16 00:33:36;;;;;;;1.40;1.30;;;26.30;61.20;;;;;;4975324;28;20544;-83
2022/06/16 00:36:04;;;;;;;1.50;1.40;;;26.20;61.00;;;;;;4975491;28;20467;-83
2022/06/16 00:38:31;;;;;;;1.80;1.70;;;26.30;61.20;;;;;;4975579;28;20441;-83
2022/06/16 00:41:00;;;;;;;1.73;1.63;;;26.20;61.00;;;;;;4975340;28;20437;-83
2022/06/16 00:43:27;;;;;;;1.50;1.40;;;26.30;61.10;;;;;;4975410;28;20477;-83
2022/06/16 00:45:59;;;;;;;1.53;1.43;;;26.20;60.90;;;;;;4975171;28;20496;-83
2022/06/16 00:48:30;;;;;;;1.90;1.80;;;26.20;61.00;;;;;;4975840;28;20432;-83
2022/06/16 00:51:04;;;;;;;1.77;1.67;;;26.20;61.00;;;;;;4975154;28;20445;-84
2022/06/16 00:53:31;;;;;;;1.50;1.40;;;26.30;61.00;;;;;;4975044;28;20493;-83
2022/06/16 00:55:59;;;;;;;1.70;1.60;;;26.20;61.00;;;;;;4975334;28;20535;-84
2022/06/16 00:58:29;;;;;;;1.40;1.30;;;26.20;60.90;;;;;;4974973;28;20449;-84
2022/06/16 01:00:56;;;;;;;1.30;1.20;;;26.20;61.40;;;;;;4975348;28;20445;-84
2022/06/16 01:06:22;;;;;;;1.60;1.50;;;26.20;60.90;;;;;;4975170;28;20536;-83
2022/06/16 01:08:52;;;;;;;2.00;1.90;;;26.20;60.90;;;;;;4974821;28;20437;-83
2022/06/16 01:14:29;;;;;;;2.83;1.67;;;26.20;61.00;;;;;;4974570;28;20982;-83
2022/06/16 01:17:00;;;;;;;1.53;1.43;;;26.20;61.10;;;;;;4974744;28;20445;-84
2022/06/16 01:19:58;;;;;;;1.77;1.67;;;26.20;60.90;;;;;;4974869;28;20429;-84
2022/06/16 01:22:41;;;;;;;1.37;1.27;;;26.20;60.90;;;;;;4974795;28;20449;-83
2022/06/16 01:25:26;;;;;;;1.73;1.63;;;26.20;60.90;;;;;;4974824;28;20508;-83
2022/06/16 01:28:18;;;;;;;1.60;1.50;;;26.20;60.90;;;;;;4974684;28;20442;-83
2022/06/16 01:30:54;;;;;;;1.60;1.50;;;26.20;60.70;;;;;;4974416;28;20485;-83
2022/06/16 01:33:26;;;;;;;1.67;1.57;;;26.20;60.90;;;;;;4974547;28;20576;-84
2022/06/16 01:36:00;;;;;;;1.60;1.50;;;26.20;60.90;;;;;;4974635;28;20461;-83
2022/06/16 01:38:33;;;;;;;1.50;1.40;;;26.20;60.80;;;;;;4974661;28;20445;-83
2022/06/16 01:41:18;;;;;;;1.47;1.33;;;26.20;60.80;;;;;;4974681;28;20929;-83
2022/06/16 01:43:49;;;;;;;1.60;1.50;;;26.20;60.80;;;;;;4974227;28;20449;-83
2022/06/16 01:46:22;;;;;;;1.50;1.40;;;26.20;60.70;;;;;;4974602;28;20448;-83
2022/06/16 01:48:54;;;;;;;1.47;1.37;;;26.20;60.70;;;;;;4974619;28;20488;-83
2022/06/16 01:51:29;;;;;;;1.53;1.43;;;26.20;60.80;;;;;;4974376;28;20449;-83
2022/06/16 01:54:03;;;;;;;1.30;1.20;;;26.20;60.80;;;;;;4974132;28;20480;-84
2022/06/16 01:56:35;;;;;;;1.40;1.30;;;26.20;60.80;;;;;;4974735;28;20511;-84
2022/06/16 01:59:07;;;;;;;1.50;1.40;;;26.20;60.70;;;;;;4974615;28;20505;-83
2022/06/16 02:01:41;;;;;;;1.63;1.53;;;26.20;60.80;;;;;;4974176;28;20449;-83
2022/06/16 02:04:17;;;;;;;1.13;1.03;;;26.20;60.80;;;;;;4974304;28;20477;-83
2022/06/16 02:06:50;;;;;;;1.40;1.30;;;26.20;60.70;;;;;;4974437;28;20799;-83
2022/06/16 02:09:25;;;;;;;2.27;1.43;;;26.20;60.70;;;;;;4975954;28;20442;-83
2022/06/16 02:11:55;;;;;;;1.50;1.40;;;26.20;60.60;;;;;;4977895;28;20512;-83
2022/06/16 02:14:26;;;;;;;1.50;1.40;;;26.20;60.70;;;;;;4977860;28;20535;-83
2022/06/16 02:16:55;;;;;;;1.50;1.37;;;26.20;60.70;;;;;;4978011;28;20476;-83
2022/06/16 02:19:25;;;;;;;1.77;1.50;;;26.20;60.60;;;;;;4978061;28;20441;-83
2022/06/16 02:21:53;;;;;;;1.60;1.50;;;26.20;60.70;;;;;;4977829;28;20442;-84
2022/06/16 02:24:23;;;;;;;1.90;1.80;;;26.20;60.60;;;;;;4977835;28;20524;-83
2022/06/16 02:26:53;;;;;;;1.20;1.10;;;26.20;60.80;;;;;;4977893;28;20445;-83
2022/06/16 02:29:29;;;;;;;1.57;1.30;;;26.20;60.60;;;;;;4977776;28;20469;-83
2022/06/16 02:32:11;;;;;;;1.47;1.37;;;26.20;60.60;;;;;;4977738;28;20437;-83
2022/06/16 02:34:47;;;;;;;1.70;1.60;;;26.20;60.70;;;;;;4977863;28;20472;-83
2022/06/16 02:37:28;;;;;;;1.30;1.20;;;26.20;60.80;;;;;;4977898;28;20451;-83
2022/06/16 02:40:07;;;;;;;1.43;1.33;;;26.20;60.70;;;;;;4977571;28;20928;-83
2022/06/16 02:42:44;;;;;;;1.50;1.40;;;26.20;60.80;;;;;;4958206;28;20453;-84
2022/06/16 02:45:21;;;;;;;1.33;1.23;;;26.20;60.70;;;;;;4958238;28;20948;-84
2022/06/16 02:48:01;;;;;;;1.40;1.23;;;26.20;60.90;;;;;;4958024;28;20441;-83
2022/06/16 02:50:39;;;;;;;1.40;1.30;;;26.20;60.90;;;;;;4958010;28;20529;-83
2022/06/16 02:53:17;;;;;;;1.60;1.40;;;26.20;60.90;;;;;;4957995;28;20581;-83
2022/06/16 02:55:47;;;;;;;1.40;1.30;;;26.20;60.90;;;;;;4958098;28;20536;-83
2022/06/16 02:58:17;;;;;;;1.40;1.30;;;26.20;60.90;;;;;;4957986;28;20531;-83
2022/06/16 03:00:48;;;;;;;1.40;1.30;;;26.20;60.90;;;;;;4962616;28;20537;-83
2022/06/16 03:03:22;;;;;;;1.30;1.20;;;26.20;61.80;;;;;;4977244;28;20491;-83
2022/06/16 03:05:53;;;;;;;1.40;1.30;;;26.20;60.80;;;;;;4977346;28;20468;-83
2022/06/16 03:08:21;;;;;;;1.33;1.23;;;26.20;60.80;;;;;;4977310;28;20444;-83
2022/06/16 03:10:51;;;;;;;1.50;1.40;;;26.20;60.80;;;;;;4977083;28;20933;-83
2022/06/16 03:13:19;;;;;;;1.53;1.30;;;26.20;60.80;;;;;;4977002;28;20517;-84
2022/06/16 03:15:46;;;;;;;1.40;1.30;;;26.20;60.90;;;;;;4977005;28;20449;-83
2022/06/16 03:18:12;;;;;;;1.30;1.20;;;26.20;60.90;;;;;;4976834;28;20469;-83
2022/06/16 03:20:41;;;;;;;1.40;1.30;;;26.20;60.90;;;;;;4976801;28;20879;-83
2022/06/16 03:23:08;;;;;;;1.37;1.27;;;26.20;60.90;;;;;;4976985;28;20476;-83
2022/06/16 03:25:35;;;;;;;1.20;1.10;;;26.20;60.90;;;;;;4976827;28;20442;-83
2022/06/16 03:28:02;;;;;;;1.20;1.10;;;26.20;60.90;;;;;;4976541;28;20441;-84
2022/06/16 03:30:29;;;;;;;1.23;1.13;;;26.20;60.90;;;;;;4976248;28;20477;-83
2022/06/16 03:32:56;;;;;;;1.77;1.50;;;26.20;60.90;;;;;;4976448;28;20491;-83
2022/06/16 03:35:23;;;;;;;1.50;1.40;;;26.20;61.10;;;;;;4976773;28;20573;-84
2022/06/16 03:37:51;;;;;;;1.20;1.10;;;26.10;60.90;;;;;;4976614;28;20524;-84
2022/06/16 03:40:18;;;;;;;1.90;1.70;;;26.10;60.90;;;;;;4976350;28;20528;-84
2022/06/16 03:42:47;;;;;;;1.23;1.13;;;26.20;60.90;;;;;;4976483;28;20456;-84
2022/06/16 03:45:14;;;;;;;1.53;1.43;;;26.20;60.90;;;;;;4976283;28;20812;-83
2022/06/16 03:47:41;;;;;;;1.53;1.43;;;26.10;60.90;;;;;;4976246;28;20460;-84
2022/06/16 03:50:12;;;;;;;1.37;1.27;;;26.10;60.90;;;;;;4976393;28;20450;-84
2022/06/16 03:52:39;;;;;;;1.30;1.20;;;26.10;60.90;;;;;;4976429;28;20449;-84
2022/06/16 03:55:09;;;;;;;1.47;1.37;;;26.10;60.90;;;;;;4976228;28;20509;-83
2022/06/16 03:57:36;;;;;;;1.17;1.07;;;26.10;60.90;;;;;;4976597;28;20533;-84
2022/06/16 04:00:03;;;;;;;1.40;1.30;;;26.10;60.90;;;;;;4975971;28;20453;-84
2022/06/16 04:02:31;;;;;;;1.33;1.23;;;26.10;60.90;;;;;;4976239;28;20544;-83
2022/06/16 04:04:57;;;;;;;1.40;1.30;;;26.10;60.90;;;;;;4976296;28;20501;-83
2022/06/16 04:07:24;;;;;;;1.40;1.30;;;26.10;60.90;;;;;;4975906;28;20979;-83
2022/06/16 04:09:51;;;;;;;1.43;1.33;;;26.10;60.90;;;;;;4975672;28;20463;-83
2022/06/16 04:12:19;;;;;;;1.50;1.20;;;26.10;60.90;;;;;;4975929;28;20532;-83
2022/06/16 04:14:46;;;;;;;1.70;1.27;;;26.10;60.90;;;;;;4975725;28;20584;-84
2022/06/16 04:17:12;;;;;;;1.40;1.30;;;26.10;60.90;;;;;;4975946;28;20448;-83
2022/06/16 04:20:11;;;;;;;1.50;1.40;;;26.10;60.90;;;;;;4975432;28;20472;-83
2022/06/16 04:22:26;;;;;;;1.40;1.30;;;26.10;60.90;;;;;;4975558;28;20488;-83
2022/06/16 04:24:53;;;;;;;1.40;1.30;;;26.10;60.90;;;;;;4975594;28;20542;-84
2022/06/16 04:27:21;;;;;;;1.17;1.07;;;26.10;60.80;;;;;;4975713;28;20437;-84
2022/06/16 04:29:48;;;;;;;1.30;1.20;;;26.10;60.70;;;;;;4975033;28;20564;-83
2022/06/16 04:32:15;;;;;;;1.60;1.50;;;26.10;60.80;;;;;;4975311;28;20473;-83
2022/06/16 04:34:43;;;;;;;1.27;1.17;;;26.10;60.80;;;;;;4975387;28;20609;-83
2022/06/16 04:37:11;;;;;;;1.50;1.40;;;26.10;60.80;;;;;;4975662;28;20792;-83
2022/06/16 04:39:38;;;;;;;1.30;1.20;;;26.10;60.80;;;;;;4975243;28;20449;-83
2022/06/16 04:42:06;;;;;;;1.30;1.10;;;26.10;60.70;;;;;;4975428;28;20529;-83
2022/06/16 04:44:35;;;;;;;1.30;1.20;;;26.10;60.80;;;;;;4975080;28;20464;-83
2022/06/16 04:47:02;;;;;;;1.00;0.90;;;26.10;60.70;;;;;;4974890;28;20536;-83
2022/06/16 04:49:30;;;;;;;1.40;1.30;;;26.10;60.70;;;;;;4975217;28;20921;-84
2022/06/16 04:51:57;;;;;;;1.40;1.00;;;26.10;60.70;;;;;;4975074;28;20449;-83
2022/06/16 04:54:24;;;;;;;1.20;1.10;;;26.10;60.70;;;;;;4975488;28;20481;-84
2022/06/16 04:56:51;;;;;;;1.23;1.13;;;26.10;60.70;;;;;;4974812;28;20567;-83
2022/06/16 04:59:18;;;;;;;1.27;1.17;;;26.10;60.70;;;;;;4975133;28;20441;-84
2022/06/16 05:01:46;;;;;;;1.20;1.10;;;26.10;60.70;;;;;;4975081;28;20827;-84
2022/06/16 05:04:13;;;;;;;1.70;1.60;;;26.10;60.70;;;;;;4974960;28;20508;-83
2022/06/16 05:06:40;;;;;;;1.37;1.20;;;26.00;60.50;;;;;;4974759;28;20524;-83
2022/06/16 05:09:07;;;;;;;1.20;1.10;;;26.00;60.60;;;;;;4974942;28;20492;-84
2022/06/16 05:11:34;;;;;;;1.20;1.10;;;26.10;60.70;;;;;;4974811;28;20540;-84
2022/06/16 05:14:01;;;;;;;1.30;1.20;;;26.10;60.60;;;;;;4974728;28;20532;-83
2022/06/16 05:16:28;;;;;;;1.40;1.30;;;26.10;60.60;;;;;;4974496;28;20484;-83
2022/06/16 05:18:56;;;;;;;1.30;1.20;;;26.10;60.70;;;;;;4974946;28;20959;-83
2022/06/16 05:21:23;;;;;;;1.20;1.10;;;26.00;60.60;;;;;;4975030;28;20533;-83
2022/06/16 05:23:50;;;;;;;1.40;1.20;;;26.00;60.60;;;;;;4974900;28;20449;-83
2022/06/16 05:26:17;;;;;;;1.23;1.13;;;26.10;60.60;;;;;;4974486;28;20532;-84
2022/06/16 05:28:44;;;;;;;1.10;1.00;;;26.10;60.50;;;;;;4974329;28;20445;-83
2022/06/16 05:31:11;;;;;;;1.10;1.00;;;26.00;60.50;;;;;;4974722;28;20481;-83
2022/06/16 05:33:38;;;;;;;1.27;1.17;;;26.00;60.40;;;;;;4974559;28;20481;-84
2022/06/16 05:36:09;;;;;;;1.30;1.20;;;26.10;60.60;;;;;;4974144;28;20446;-83
2022/06/16 05:38:36;;;;;;;1.30;1.10;;;26.00;60.50;;;;;;4974210;28;20556;-84
2022/06/16 05:41:06;;;;;;;1.37;1.27;;;26.00;60.50;;;;;;4974461;28;20483;-83
2022/06/16 05:43:34;;;;;;;1.30;1.20;;;26.10;60.50;;;;;;4975199;28;20448;-83
2022/06/16 05:46:02;;;;;;;1.00;0.90;;;26.00;60.50;;;;;;4978246;28;20449;-84
2022/06/16 05:48:29;;;;;;;1.10;1.00;;;26.10;60.60;;;;;;4978444;28;20489;-84
2022/06/16 05:51:02;;;;;;;1.30;1.20;;;26.10;60.50;;;;;;4978485;28;20477;-84
2022/06/16 05:53:30;;;;;;;1.40;1.30;;;26.00;60.50;;;;;;4978387;28;20565;-83
2022/06/16 05:55:57;;;;;;;1.33;1.23;;;26.00;60.50;;;;;;4978171;28;20528;-83
2022/06/16 05:58:24;;;;;;;1.20;1.10;;;26.10;60.50;;;;;;4978289;28;20444;-82
2022/06/16 06:00:51;;;;;;;1.20;1.10;;;26.00;60.40;;;;;;4978312;28;20477;-83
2022/06/16 06:03:18;;;;;;;1.53;1.30;;;26.00;60.40;;;;;;4978174;28;20532;-84
2022/06/16 06:05:45;;;;;;;1.10;1.00;;;26.00;60.50;;;;;;4978227;28;21021;-84
2022/06/16 06:16:29;;;;;;;1.30;1.20;;;26.00;60.50;;;;;;4978103;28;20841;-84
2022/06/16 06:18:56;;;;;;;1.20;1.10;;;26.00;60.60;;;;;;4978125;28;20519;-83
2022/06/16 06:24:05;;;;;;;1.00;0.90;;;26.00;60.50;;;;;;4977747;28;20429;-83
2022/06/16 06:26:34;;;;;;;1.30;1.20;;;26.00;60.50;;;;;;4977943;28;20606;-83
2022/06/16 06:29:01;;;;;;;1.40;1.30;;;26.00;60.50;;;;;;4977674;28;20477;-84
2022/06/16 06:31:28;;;;;;;1.30;1.20;;;26.00;60.50;;;;;;4977753;28;20485;-83
2022/06/16 06:33:55;;;;;;;1.13;1.03;;;26.00;60.50;;;;;;4977602;28;20585;-84
2022/06/16 06:36:22;;;;;;;1.17;1.07;;;26.00;60.60;;;;;;4977619;28;20537;-84
2022/06/16 06:38:49;;;;;;;1.30;1.20;;;26.00;60.50;;;;;;4977616;28;20540;-84
2022/06/16 06:41:17;;;;;;;1.40;1.20;;;26.00;60.60;;;;;;4977800;28;20448;-83
2022/06/16 06:43:46;;;;;;;1.00;0.90;;;26.00;60.60;;;;;;4977383;28;20453;-82
2022/06/16 06:46:13;;;;;;;1.47;1.37;;;26.00;60.60;;;;;;4976541;28;21046;-84
2022/06/16 06:48:40;;;;;;;1.20;1.10;;;25.90;60.50;;;;;;4977236;28;20833;-84
2022/06/16 06:51:07;;;;;;;1.47;1.37;;;26.00;60.60;;;;;;4977106;28;20995;-83
2022/06/16 06:53:34;;;;;;;1.10;1.00;;;26.00;60.60;;;;;;4977047;28;20480;-85
2022/06/16 06:56:01;;;;;;;1.40;1.30;;;26.00;60.60;;;;;;4977289;28;20861;-86
2022/06/16 06:58:31;;;;;;;1.30;1.20;;;26.00;60.60;;;;;;4977381;28;20871;-84
2022/06/16 07:01:01;;;;;;;1.20;1.10;;;26.00;60.70;;;;;;4977063;28;20442;-85
2022/06/16 07:03:29;;;;;;;1.30;1.00;;;26.00;60.80;;;;;;4977364;28;20452;-85
2022/06/16 07:05:56;;;;;;;2.87;1.40;;;26.00;60.70;;;;;;4977080;28;20484;-84
2022/06/16 07:08:24;;;;;;;2.23;1.57;;;26.00;59.40;;;;;;4977290;28;20621;-84
2022/06/16 07:10:51;;;;;;;2.60;1.73;;;26.00;58.80;;;;;;4977002;28;20446;-83
2022/06/16 07:13:18;;;;;;;2.00;1.40;;;26.00;58.30;;;;;;4976559;28;20549;-86
2022/06/16 07:15:45;;;;;;;3.90;1.70;;;26.00;58.30;;;;;;4977025;28;20496;-87
2022/06/16 07:18:14;;;;;;;1.83;1.20;;;26.00;58.50;;;;;;4976351;28;20484;-83
2022/06/16 07:20:41;;;;;;;3.10;1.87;;;25.90;58.30;;;;;;4976744;28;20452;-84
2022/06/16 07:23:08;;;;;;;1.60;1.30;;;25.90;57.80;;;;;;4976959;28;20861;-83
2022/06/16 07:25:36;;;;;;;2.70;1.60;;;25.90;58.60;;;;;;4976775;28;20446;-84
2022/06/16 07:28:03;;;;;;;2.17;1.40;;;25.90;58.40;;;;;;4976479;28;20469;-83
2022/06/16 07:30:30;;;;;;;2.80;1.30;;;25.90;58.80;;;;;;4957133;28;20879;-83
2022/06/16 07:32:56;;;;;;;2.13;1.30;;;25.90;59.20;;;;;;4957638;28;20434;-84
2022/06/16 07:35:25;;;;;;;1.60;1.50;;;25.90;59.50;;;;;;4957243;28;20593;-83
2022/06/16 07:37:52;;;;;;;2.43;1.40;;;26.00;59.70;;;;;;4957106;28;20529;-83
2022/06/16 07:40:21;;;;;;;1.90;1.30;;;26.00;59.70;;;;;;4957117;28;20537;-83
2022/06/16 07:42:49;;;;;;;2.17;1.30;;;26.00;59.80;;;;;;4968263;28;20536;-84
2022/06/16 07:45:16;;;;;;;1.70;1.50;;;26.00;59.80;;;;;;4976464;28;20801;-84
2022/06/16 07:47:43;;;;;;;1.73;1.30;;;26.00;59.80;;;;;;4956971;28;20948;-87
2022/06/16 07:50:12;;;;;;;1.43;1.17;;;26.00;59.90;;;;;;4956919;28;20486;-85
2022/06/16 07:52:40;;;;;;;1.63;1.20;;;26.00;59.90;;;;;;4956925;28;20457;-85
2022/06/16 07:55:09;;;;;;;1.40;1.20;;;26.00;59.80;;;;;;4957064;28;20597;-85
2022/06/16 07:57:41;;;;;;;4.70;1.40;;;26.00;60.60;;;;;;4956872;28;20801;-84
2022/06/16 08:00:11;;;;;;;1.20;0.90;;;26.00;59.90;;;;;;4968599;28;20819;-84
2022/06/16 08:02:38;;;;;;;1.80;1.33;;;26.00;60.00;;;;;;4976831;28;20445;-84
2022/06/16 08:05:06;;;;;;;1.50;1.40;;;26.00;59.90;;;;;;4976060;28;20493;-84
2022/06/16 08:07:33;;;;;;;2.03;1.23;;;26.10;60.00;;;;;;4975775;28;20485;-84
2022/06/16 08:10:01;;;;;;;1.23;1.07;;;26.10;59.90;;;;;;4976525;28;20540;-84
2022/06/16 08:12:28;;;;;;;1.63;1.23;;;26.00;59.20;;;;;;4976024;28;20526;-85
2022/06/16 08:14:55;;;;;;;1.13;1.00;;;26.00;58.90;;;;;;4976069;28;20588;-85
2022/06/16 08:17:26;;;;;;;1.20;1.10;;;26.00;58.60;;;;;;4975494;28;20532;-95
2022/06/16 08:19:53;;;;;;;1.63;1.10;;;26.00;58.40;;;;;;4971010;28;20490;-81
2022/06/16 08:22:20;;;;;;;1.47;1.37;;;26.00;58.40;;;;;;4971248;28;20520;-82
2022/06/16 08:24:48;;;;;;;1.30;1.20;;;26.00;59.00;;;;;;4968596;28;20549;-84
2022/06/16 08:30:41;;;;;;;2.03;1.10;;;26.00;58.70;;;;;;4950284;29;20477;-84
2022/06/16 08:33:09;;;;;;;1.10;1.00;;;25.90;58.80;;;;;;4956093;28;20474;-84
2022/06/16 08:35:36;;;;;;;1.70;1.30;;;26.00;58.70;;;;;;4962517;28;20493;-83
2022/06/16 08:38:03;;;;;;;3.27;1.00;;;26.00;58.50;;;;;;4966660;28;20474;-87
2022/06/16 08:40:34;;;;;;;4.43;1.10;;;26.00;58.40;;;;;;4971708;28;20892;-83
2022/06/16 08:43:07;;;;;;;2.70;1.10;;;26.00;58.30;;;;;;4975264;28;20536;-86
2022/06/16 08:45:38;;;;;;;1.50;1.20;;;26.00;58.20;;;;;;4956966;28;20806;-85
2022/06/16 08:48:21;;;;;;;1.27;1.00;;;26.00;58.30;;;;;;4956030;28;20930;-86
2022/06/16 08:50:55;;;;;;;1.30;1.20;;;26.00;58.30;;;;;;4958559;28;20532;-83
2022/06/16 08:53:35;;;;;;;1.80;1.13;;;26.00;58.30;;;;;;4971836;28;20936;-83
2022/06/16 08:56:06;;;;;;;1.10;1.00;;;26.00;58.60;;;;;;4966415;28;20492;-84
2022/06/16 08:58:40;;;;;;;2.77;0.97;;;26.00;59.00;;;;;;4960083;28;20528;-83
2022/06/16 09:01:14;;;;;;;1.20;1.03;;;26.00;59.10;;;;;;4973166;28;20544;-85
2022/06/16 09:03:47;;;;;;;1.07;0.97;;;26.00;59.10;;;;;;4974529;28;20552;-85
2022/06/16 09:06:26;;;;;;;1.50;1.20;;;26.00;59.20;;;;;;4973436;28;20460;-85
2022/06/16 09:09:02;;;;;;;1.20;0.97;;;26.00;59.20;;;;;;4974853;28;20437;-85
2022/06/16 09:11:36;;;;;;;1.53;1.13;;;26.10;59.30;;;;;;4974444;28;20524;-85
2022/06/16 09:14:20;;;;;;;1.43;0.90;;;26.10;59.40;;;;;;4974743;28;20442;-84
2022/06/16 09:16:59;;;;;;;1.30;1.17;;;26.10;59.40;;;;;;4974861;28;20445;-83
2022/06/16 09:19:49;;;;;;;2.17;1.00;;;26.00;59.30;;;;;;4974463;28;20819;-84
2022/06/16 09:22:29;;;;;;;1.10;1.00;;;26.10;59.40;;;;;;4974556;28;20533;-84
2022/06/16 09:25:17;;;;;;;1.20;1.10;;;26.10;59.40;;;;;;4974579;28;20476;-84
2022/06/16 09:27:49;;;;;;;1.37;1.13;;;26.00;59.40;;;;;;4974553;28;20469;-84
2022/06/16 09:30:19;;;;;;;1.57;1.30;;;26.10;59.50;;;;;;4974225;28;20483;-84
2022/06/16 09:32:52;;;;;;;1.00;0.90;;;26.10;59.50;;;;;;4974456;28;20459;-84
2022/06/16 09:35:26;;;;;;;1.03;0.93;;;26.10;59.50;;;;;;4974657;28;20493;-84
2022/06/16 09:37:58;;;;;;;2.23;1.13;;;26.10;59.50;;;;;;4974613;28;20446;-84
2022/06/16 09:40:33;;;;;;;1.57;1.00;;;26.10;59.50;;;;;;4974441;28;20956;-84
2022/06/16 09:43:06;;;;;;;3.63;1.30;;;26.10;59.50;;;;;;4974441;28;20491;-84
2022/06/16 09:45:38;;;;;;;1.20;1.10;;;26.10;59.50;;;;;;4974392;28;20446;-83
2022/06/16 09:48:09;;;;;;;1.40;1.30;;;26.10;59.60;;;;;;4974418;28;20473;-83
2022/06/16 09:50:46;;;;;;;1.83;1.17;;;26.10;59.60;;;;;;4974317;28;20520;-83
2022/06/16 09:53:20;;;;;;;1.00;0.90;;;26.10;59.60;;;;;;4974348;28;21007;-84
2022/06/16 09:55:50;;;;;;;1.10;0.90;;;26.10;59.60;;;;;;4974461;28;20996;-83
2022/06/16 09:58:23;;;;;;;1.40;1.07;;;26.10;59.60;;;;;;4974292;28;20484;-84
2022/06/16 10:00:54;;;;;;;1.50;1.00;;;26.10;59.60;;;;;;4974306;28;20456;-84
2022/06/16 10:03:32;;;;;;;1.33;1.20;;;26.10;59.60;;;;;;4974257;28;20493;-84
2022/06/16 10:06:08;;;;;;;1.50;1.00;;;26.10;59.70;;;;;;4974245;28;20483;-84
2022/06/16 10:08:43;;;;;;;1.73;1.00;;;26.10;59.70;;;;;;4974428;28;20520;-84
2022/06/16 10:11:16;;;;;;;1.30;0.90;;;26.10;59.60;;;;;;4974081;28;20436;-84
2022/06/16 10:13:51;;;;;;;1.10;1.00;;;26.10;59.70;;;;;;4973012;28;20445;-84
2022/06/16 10:16:20;;;;;;;1.30;0.97;;;26.10;59.70;;;;;;4974040;28;20523;-84
2022/06/16 10:18:50;;;;;;;1.73;1.20;;;26.10;59.70;;;;;;4974106;28;20532;-84
2022/06/16 10:21:18;;;;;;;1.30;1.13;;;26.10;59.70;;;;;;4974055;28;20928;-84
2022/06/16 10:23:51;;;;;;;1.20;1.10;;;26.10;59.70;;;;;;4974096;28;20500;-83
2022/06/16 10:26:19;;;;;;;1.50;1.00;;;26.10;59.70;;;;;;4974062;28;20469;-83
2022/06/16 10:29:02;;;;;;;1.00;0.90;;;26.10;59.70;;;;;;4973860;28;20486;-84
2022/06/16 10:31:39;;;;;;;1.40;1.20;;;26.20;59.70;;;;;;4977158;28;20480;-83
2022/06/16 10:34:27;;;;;;;1.23;1.13;;;26.20;59.80;;;;;;4977526;28;20468;-83
2022/06/16 10:37:00;;;;;;;1.30;0.90;;;26.20;59.80;;;;;;4977606;28;20519;-84
2022/06/16 10:39:36;;;;;;;1.10;1.00;;;26.10;59.70;;;;;;4977186;28;20463;-82
2022/06/16 10:42:12;;;;;;;1.00;0.90;;;26.10;59.20;;;;;;4977628;28;20441;-80
2022/06/16 10:44:39;;;;;;;1.30;1.00;;;26.10;59.30;;;;;;4977427;28;20548;-80
2022/06/16 10:47:16;;;;;;;1.20;1.10;;;26.10;59.60;;;;;;4977511;28;20443;-81
2022/06/16 10:49:46;;;;;;;1.63;0.90;;;26.10;59.70;;;;;;4977256;28;20452;-82
2022/06/16 10:52:21;;;;;;;2.17;0.80;;;26.10;59.70;;;;;;4977360;28;20443;-82
2022/06/16 10:54:58;;;;;;;1.90;1.00;;;26.10;59.70;;;;;;4977167;28;21027;-83
2022/06/16 10:57:27;;;;;;;1.43;1.00;;;26.10;59.70;;;;;;4977299;28;20528;-83
2022/06/16 10:59:58;;;;;;;3.53;1.00;;;26.10;59.70;;;;;;4977069;28;20480;-83
2022/06/16 11:02:27;;;;;;;1.30;0.90;;;26.10;59.70;;;;;;4977217;28;20445;-83
2022/06/16 11:05:01;;;;;;;0.93;0.73;;;26.10;59.70;;;;;;4976998;28;20488;-84
2022/06/16 11:07:30;;;;;;;2.00;0.80;;;26.20;59.80;;;;;;4977153;28;20499;-84
2022/06/16 11:10:09;;;;;;;1.07;0.97;;;26.10;59.80;;;;;;4976852;28;20442;-84
2022/06/16 11:12:39;;;;;;;1.03;0.80;;;26.20;59.80;;;;;;4977019;28;20496;-84
2022/06/16 11:15:17;;;;;;;1.00;0.90;;;26.20;59.80;;;;;;4976827;28;21005;-84
2022/06/16 11:17:50;;;;;;;1.67;1.00;;;26.20;59.80;;;;;;4976831;28;20445;-84
2022/06/16 11:20:27;;;;;;;1.03;0.80;;;26.10;59.80;;;;;;4976714;28;20441;-85
2022/06/16 11:22:58;;;;;;;1.10;1.00;;;26.10;59.80;;;;;;4976817;28;20536;-84
2022/06/16 11:25:31;;;;;;;2.30;0.90;;;26.10;59.70;;;;;;4976844;28;20848;-85
2022/06/16 11:28:00;;;;;;;2.23;1.00;;;26.10;59.80;;;;;;4976732;28;20449;-85
2022/06/16 11:30:38;;;;;;;1.10;0.90;;;26.10;59.80;;;;;;4976334;28;20473;-85
2022/06/16 11:33:06;;;;;;;1.00;0.90;;;26.20;59.80;;;;;;4976523;28;20861;-85
2022/06/16 11:35:42;;;;;;;1.20;1.10;;;26.20;59.80;;;;;;4976611;28;20564;-85
2022/06/16 11:38:16;;;;;;;1.00;0.90;;;26.20;60.30;;;;;;4976571;28;20552;-85
2022/06/16 11:40:48;;;;;;;1.77;1.00;;;26.20;59.80;;;;;;4975605;28;20454;-85
2022/06/16 11:43:47;;;;;;;1.40;1.30;;;26.10;59.80;;;;;;4976097;28;20524;-85
2022/06/16 11:46:21;;;;;;;1.00;0.90;;;26.20;59.80;;;;;;4976372;28;20536;-85
2022/06/16 11:49:03;;;;;;;1.00;0.90;;;26.20;59.90;;;;;;4976293;28;20536;-85
2022/06/16 11:51:39;;;;;;;1.20;1.10;;;26.20;59.80;;;;;;4976145;28;20473;-85
2022/06/16 11:54:20;;;;;;;1.00;0.90;;;26.20;59.90;;;;;;4976222;28;20848;-85
2022/06/16 11:56:53;;;;;;;1.27;0.90;;;26.20;59.90;;;;;;4975927;28;20496;-85
2022/06/16 11:59:46;;;;;;;1.00;0.83;;;26.10;59.80;;;;;;4976181;28;20992;-86
2022/06/16 12:02:31;;;;;;;1.27;1.10;;;26.20;59.90;;;;;;4976071;28;20464;-85
2022/06/16 12:05:17;;;;;;;1.30;1.00;;;26.20;59.90;;;;;;4976232;28;20807;-86
2022/06/16 12:08:15;;;;;;;1.20;1.00;;;26.20;59.90;;;;;;4976199;28;20536;-88
2022/06/16 12:10:48;;;;;;;1.10;1.00;;;26.20;59.50;;;;;;4976126;28;20473;-84
2022/06/16 12:13:22;;;;;;;1.00;0.90;;;26.10;59.60;;;;;;4975672;28;20928;-80
2022/06/16 12:15:54;;;;;;;1.10;0.90;;;26.10;59.70;;;;;;4975881;28;20492;-80
2022/06/16 12:18:39;;;;;;;1.60;1.00;;;26.20;59.90;;;;;;4975171;28;20449;-86
2022/06/16 12:21:15;;;;;;;2.50;1.57;;;26.20;60.70;;;;;;4974088;28;20551;-85
2022/06/16 12:23:50;;;;;;;2.50;1.10;;;26.10;59.60;;;;;;4973948;28;20484;-86
2022/06/16 12:26:23;;;;;;;2.97;1.10;;;26.10;59.50;;;;;;4975480;28;20445;-85
2022/06/16 12:28:59;;;;;;;4.57;1.20;;;26.10;59.40;;;;;;4975475;28;20447;-85
2022/06/16 12:31:35;;;;;;;1.50;1.00;;;26.10;59.40;;;;;;4974178;28;20473;-85
2022/06/16 12:34:11;;;;;;;1.00;0.90;;;26.10;60.00;;;;;;4973867;28;21043;-85
2022/06/16 12:36:41;;;;;;;1.73;1.00;;;26.10;59.30;;;;;;4973126;28;20495;-85
2022/06/16 12:39:15;;;;;;;2.83;1.30;;;26.10;59.20;;;;;;4973439;28;20536;-84
2022/06/16 12:41:45;;;;;;;2.00;1.10;;;26.10;59.30;;;;;;4973414;28;20445;-85
2022/06/16 12:44:16;;;;;;;1.40;1.10;;;26.10;59.20;;;;;;4973372;28;20987;-85
2022/06/16 12:46:47;;;;;;;2.70;1.20;;;26.00;59.10;;;;;;4973818;28;20925;-85
2022/06/16 12:49:21;;;;;;;2.40;1.10;;;26.10;59.20;;;;;;4975181;28;20603;-85
2022/06/16 12:51:52;;;;;;;1.60;1.40;;;26.00;59.10;;;;;;4975132;28;20495;-85
2022/06/16 12:54:25;;;;;;;2.17;1.20;;;26.10;59.10;;;;;;4974911;28;20448;-85
2022/06/16 12:56:56;;;;;;;1.40;1.10;;;26.10;59.20;;;;;;4974996;28;20851;-85
2022/06/16 12:59:29;;;;;;;1.53;1.03;;;26.10;59.20;;;;;;4975002;28;20540;-86
2022/06/16 13:01:58;;;;;;;1.47;1.37;;;26.10;59.20;;;;;;4975521;28;20445;-86
2022/06/16 13:04:28;;;;;;;1.10;1.00;;;26.10;59.20;;;;;;4975716;28;20472;-85
2022/06/16 13:06:57;;;;;;;1.57;1.10;;;26.10;59.30;;;;;;4975477;28;20452;-85
2022/06/16 13:09:25;;;;;;;1.50;1.23;;;26.10;59.30;;;;;;4974713;28;20532;-85
2022/06/16 13:11:56;;;;;;;1.30;1.20;;;26.10;59.40;;;;;;4974807;28;20540;-86
2022/06/16 13:14:28;;;;;;;1.40;1.30;;;26.10;59.30;;;;;;4974841;28;20446;-85
2022/06/16 13:16:58;;;;;;;1.30;0.93;;;26.10;59.40;;;;;;4974800;28;20493;-85
2022/06/16 13:19:27;;;;;;;1.23;1.13;;;26.10;59.40;;;;;;4974695;28;20444;-84
2022/06/16 13:21:57;;;;;;;1.13;1.00;;;26.10;59.30;;;;;;4974678;28;20454;-85
2022/06/16 13:24:38;;;;;;;1.10;1.00;;;26.10;59.30;;;;;;4974563;28;20445;-85
2022/06/16 13:27:09;;;;;;;1.93;1.20;;;26.10;59.30;;;;;;4974750;28;20527;-85
2022/06/16 13:30:15;;;;;;;1.13;1.03;;;26.10;59.40;;;;;;4974278;28;20488;-85